createdAt,value
2022-11-23T00:00:43.619Z,17.52
2022-11-23T00:03:16.674Z,16.58
2022-11-23T00:05:43.681Z,16.63
2022-11-23T00:08:10.671Z,14.57
2022-11-23T00:10:37.645Z,14.43
2022-11-23T00:13:04.837Z,18.80
2022-11-23T00:15:32.481Z,23.65
2022-11-23T00:18:02.651Z,15.40
2022-11-23T00:20:29.717Z,19.20
2022-11-23T00:22:56.674Z,18.48
2022-11-23T00:25:23.633Z,19.98
2022-11-23T00:27:50.567Z,19.35
2022-11-23T00:30:17.777Z,20.05
2022-11-23T00:32:44.756Z,17.38
2022-11-23T00:35:11.795Z,16.58
2022-11-23T00:37:38.760Z,17.98
2022-11-23T00:40:06.561Z,17.65
2022-11-23T00:42:37.890Z,18.75
2022-11-23T00:45:05.995Z,18.35
2022-11-23T00:47:33.018Z,21.30
2022-11-23T00:50:00.046Z,17.75
2022-11-23T00:52:27.072Z,18.30
2022-11-23T00:54:54.072Z,19.02
2022-11-23T00:57:21.033Z,18.52
2022-11-23T00:59:48.408Z,18.77
2022-11-23T01:02:16.137Z,19.08
2022-11-23T01:04:43.248Z,18.45
2022-11-23T01:07:10.273Z,17.75
2022-11-23T01:09:37.220Z,18.42
2022-11-23T01:12:04.299Z,21.23
2022-11-23T01:14:31.249Z,17.23
2022-11-23T01:16:58.204Z,22.08
2022-11-23T01:19:25.855Z,19.73
2022-11-23T01:21:53.029Z,21.10
2022-11-23T01:24:23.405Z,19.30
2022-11-23T01:26:54.625Z,17.02
2022-11-23T01:29:23.437Z,22.13
2022-11-23T01:31:50.670Z,16.92
2022-11-23T01:34:18.087Z,18.25
2022-11-23T01:36:45.635Z,20.80
2022-11-23T01:39:13.182Z,16.65
2022-11-23T01:41:42.455Z,19.02
2022-11-23T01:44:27.819Z,17.00
2022-11-23T01:47:00.361Z,20.00
2022-11-23T01:49:33.705Z,21.42
2022-11-23T01:52:07.078Z,19.15
2022-11-23T01:54:44.966Z,17.50
2022-11-23T01:57:22.345Z,19.05
2022-11-23T01:59:50.368Z,16.83
2022-11-23T02:02:17.829Z,19.13
2022-11-23T02:04:48.647Z,19.88
2022-11-23T02:07:18.676Z,18.48
2022-11-23T02:09:47.079Z,15.70
2022-11-23T02:12:14.823Z,20.10
2022-11-23T02:14:44.478Z,17.77
2022-11-23T02:17:11.797Z,16.90
2022-11-23T02:20:04.505Z,18.05
2022-11-23T02:22:53.545Z,16.88
2022-11-23T02:25:45.306Z,17.88
2022-11-23T02:28:16.113Z,15.55
2022-11-23T02:30:45.621Z,17.42
2022-11-23T02:33:12.828Z,21.63
2022-11-23T02:35:54.995Z,17.83
2022-11-23T02:38:26.381Z,19.15
2022-11-23T02:40:53.408Z,17.25
2022-11-23T02:43:22.882Z,21.33
2022-11-23T02:45:54.493Z,16.85
2022-11-23T02:48:25.896Z,22.65
2022-11-23T02:50:52.962Z,17.88
2022-11-23T02:53:20.070Z,19.48
2022-11-23T02:55:47.212Z,15.02
2022-11-23T02:58:14.125Z,16.10
2022-11-23T03:00:42.337Z,17.73
2022-11-23T03:03:09.565Z,17.92
2022-11-23T03:05:36.691Z,18.50
2022-11-23T03:08:06.602Z,23.52
2022-11-23T03:10:34.865Z,14.63
2022-11-23T03:13:02.059Z,20.13
2022-11-23T03:15:33.056Z,18.50
2022-11-23T03:18:00.199Z,14.60
2022-11-23T03:20:27.823Z,17.50
2022-11-23T03:22:54.837Z,17.67
2022-11-23T03:25:24.049Z,15.57
2022-11-23T03:27:54.293Z,15.15
2022-11-23T03:30:21.492Z,20.83
2022-11-23T03:32:49.670Z,16.83
2022-11-23T03:35:17.972Z,15.68
2022-11-23T03:38:15.891Z,22.52
2022-11-23T03:40:47.322Z,19.73
2022-11-23T03:43:37.502Z,18.70
2022-11-23T03:46:04.524Z,17.73
2022-11-23T03:48:31.496Z,16.02
2022-11-23T03:50:58.538Z,17.92
2022-11-23T03:53:25.552Z,17.52
2022-11-23T03:55:55.404Z,17.52
2022-11-23T03:58:24.441Z,18.17
2022-11-23T04:00:51.652Z,16.20
2022-11-23T04:03:18.884Z,14.25
2022-11-23T04:06:08.983Z,17.73
2022-11-23T04:09:02.366Z,16.30
2022-11-23T04:11:58.796Z,16.88
2022-11-23T04:14:25.884Z,18.27
2022-11-23T04:16:53.060Z,17.02
2022-11-23T04:19:20.437Z,16.05
2022-11-23T04:21:47.994Z,16.23
2022-11-23T04:24:15.060Z,15.85
2022-11-23T04:26:45.643Z,16.20
2022-11-23T04:29:12.980Z,16.02
2022-11-23T04:31:44.657Z,19.80
2022-11-23T04:34:14.421Z,18.50
2022-11-23T04:36:42.432Z,17.85
2022-11-23T04:39:12.606Z,16.27
2022-11-23T04:41:58.259Z,16.35
2022-11-23T04:44:25.527Z,16.92
2022-11-23T04:46:59.224Z,16.08
2022-11-23T04:49:26.678Z,16.25
2022-11-23T04:51:54.450Z,16.45
2022-11-23T04:54:26.770Z,17.48
2022-11-23T04:56:57.811Z,16.20
2022-11-23T04:59:25.123Z,14.15
2022-11-23T05:01:52.486Z,16.40
2022-11-23T05:04:48.755Z,13.70
2022-11-23T05:07:17.432Z,19.55
2022-11-23T05:09:50.426Z,14.95
2022-11-23T05:12:19.407Z,15.98
2022-11-23T05:14:46.369Z,16.15
2022-11-23T05:17:18.668Z,18.92
2022-11-23T05:19:47.283Z,15.55
2022-11-23T05:22:14.359Z,14.07
2022-11-23T05:24:42.897Z,15.68
2022-11-23T05:27:15.285Z,14.40
2022-11-23T05:29:43.335Z,13.63
2022-11-23T05:32:11.175Z,16.05
2022-11-23T05:34:38.960Z,14.27
2022-11-23T05:37:07.699Z,14.48
2022-11-23T05:39:39.266Z,14.70
2022-11-23T05:42:06.316Z,17.65
2022-11-23T05:44:39.237Z,13.20
2022-11-23T05:47:11.357Z,13.68
2022-11-23T05:49:39.116Z,16.38
2022-11-23T05:52:06.610Z,19.10
2022-11-23T05:54:35.841Z,18.35
2022-11-23T05:57:08.432Z,18.92
2022-11-23T05:59:38.213Z,14.63
2022-11-23T06:02:06.852Z,14.13
2022-11-23T06:04:36.170Z,16.15
2022-11-23T06:07:05.769Z,18.50
2022-11-23T06:09:55.124Z,20.20
2022-11-23T06:12:22.617Z,15.02
2022-11-23T06:14:49.682Z,16.33
2022-11-23T06:17:20.741Z,19.27
2022-11-23T06:19:49.781Z,16.88
2022-11-23T06:22:17.465Z,18.23
2022-11-23T06:24:58.528Z,18.98
2022-11-23T06:27:38.569Z,16.95
2022-11-23T06:30:14.925Z,16.30
2022-11-23T06:32:42.508Z,21.00
2022-11-23T06:35:10.415Z,19.85
2022-11-23T06:37:40.343Z,18.60
2022-11-23T06:40:08.348Z,19.55
2022-11-23T06:42:40.050Z,17.98
2022-11-23T06:45:15.571Z,19.55
2022-11-23T06:47:43.829Z,19.50
2022-11-23T06:50:11.461Z,18.92
2022-11-23T06:52:39.294Z,20.52
2022-11-23T06:55:06.571Z,21.95
2022-11-23T06:57:34.660Z,17.55
2022-11-23T07:00:02.804Z,19.67
2022-11-23T07:02:34.906Z,17.35
2022-11-23T07:05:02.139Z,25.13
2022-11-23T07:07:31.715Z,23.35
2022-11-23T07:10:18.508Z,28.00
2022-11-23T07:12:48.758Z,24.85
2022-11-23T07:15:19.779Z,22.33
2022-11-23T07:17:46.833Z,18.77
2022-11-23T07:20:14.542Z,23.55
2022-11-23T07:22:41.853Z,21.30
2022-11-23T07:25:09.744Z,18.58
2022-11-23T07:27:37.276Z,18.80
2022-11-23T07:30:05.449Z,25.40
2022-11-23T07:32:32.463Z,24.52
2022-11-23T07:34:59.505Z,19.40
2022-11-23T07:37:28.471Z,20.25
2022-11-23T07:39:57.903Z,19.42
2022-11-23T07:42:42.886Z,22.98
2022-11-23T07:45:12.225Z,20.98
2022-11-23T07:47:45.082Z,18.83
2022-11-23T07:50:13.782Z,23.20
2022-11-23T07:52:41.661Z,22.33
2022-11-23T07:55:09.189Z,29.17
2022-11-23T07:57:36.147Z,21.20
2022-11-23T08:00:05.001Z,23.77
2022-11-23T08:05:26.554Z,19.33
2022-11-23T08:08:02.175Z,23.08
2022-11-23T08:10:30.274Z,19.38
2022-11-23T08:12:58.545Z,18.73
2022-11-23T08:15:28.126Z,25.00
2022-11-23T08:18:00.975Z,20.42
2022-11-23T08:20:29.224Z,24.05
2022-11-23T08:22:56.704Z,22.50
2022-11-23T08:25:25.097Z,19.17
2022-11-23T08:27:59.585Z,24.65
2022-11-23T08:30:27.221Z,20.33
2022-11-23T08:32:54.388Z,18.55
2022-11-23T08:35:22.094Z,17.33
2022-11-23T08:37:49.196Z,22.20
2022-11-23T08:40:20.655Z,19.02
2022-11-23T08:42:50.854Z,19.23
2022-11-23T08:45:18.083Z,17.20
2022-11-23T08:47:45.132Z,19.77
2022-11-23T08:50:12.791Z,19.52
2022-11-23T08:52:39.749Z,20.10
2022-11-23T08:55:07.034Z,18.95
2022-11-23T08:57:34.048Z,20.55
2022-11-23T09:00:01.243Z,23.83
2022-11-23T09:02:28.233Z,35.40
2022-11-23T09:04:55.378Z,26.08
2022-11-23T09:07:22.566Z,22.85
2022-11-23T09:09:49.640Z,25.08
2022-11-23T09:12:16.752Z,22.70
2022-11-23T09:14:43.759Z,20.02
2022-11-23T09:17:10.840Z,20.80
2022-11-23T09:19:37.805Z,22.15
2022-11-23T09:22:04.856Z,18.77
2022-11-23T09:24:32.317Z,18.65
2022-11-23T09:26:59.685Z,21.13
2022-11-23T09:29:26.837Z,19.77
2022-11-23T09:31:53.880Z,19.63
2022-11-23T09:34:20.987Z,21.08
2022-11-23T09:36:48.170Z,19.67
2022-11-23T09:39:15.365Z,15.65
2022-11-23T09:41:54.229Z,14.43
2022-11-23T09:44:41.540Z,17.65
2022-11-23T09:47:30.777Z,18.58
2022-11-23T09:50:03.956Z,16.45
2022-11-23T09:52:31.778Z,18.67
2022-11-23T09:55:03.456Z,24.98
2022-11-23T09:57:34.211Z,16.83
2022-11-23T10:00:18.964Z,16.48
2022-11-23T10:02:47.200Z,27.08
2022-11-23T10:05:23.394Z,17.92
2022-11-23T10:07:59.236Z,19.42
2022-11-23T10:13:40.652Z,18.70
2022-11-23T10:16:44.595Z,20.42
2022-11-23T10:19:29.555Z,20.67
2022-11-23T10:22:02.590Z,19.95
2022-11-23T10:24:37.605Z,21.23
2022-11-23T10:27:17.705Z,21.57
2022-11-23T10:29:45.971Z,19.95
2022-11-23T10:32:26.954Z,14.95
2022-11-23T10:34:59.637Z,17.45
2022-11-23T10:37:26.755Z,17.65
2022-11-23T10:39:53.716Z,20.75
2022-11-23T10:42:40.988Z,13.48
2022-11-23T10:45:20.628Z,18.27
2022-11-23T10:47:58.777Z,16.55
2022-11-23T10:50:41.035Z,14.05
2022-11-23T10:53:23.223Z,17.00
2022-11-23T10:55:53.724Z,14.27
2022-11-23T10:58:37.232Z,14.93
2022-11-23T11:01:13.765Z,12.02
2022-11-23T11:03:40.816Z,13.07
2022-11-23T11:06:09.978Z,12.60
2022-11-23T11:08:51.675Z,10.60
2022-11-23T11:11:26.732Z,15.25
2022-11-23T11:14:17.792Z,12.05
2022-11-23T11:16:56.092Z,13.23
2022-11-23T11:19:36.504Z,16.83
2022-11-23T11:22:25.308Z,11.77
2022-11-23T11:24:52.488Z,13.95
2022-11-23T11:27:24.617Z,9.82
2022-11-23T11:29:56.141Z,10.52
2022-11-23T11:32:23.803Z,9.07
2022-11-23T11:35:20.968Z,11.88
2022-11-23T11:37:51.812Z,7.63
2022-11-23T11:40:21.658Z,11.88
2022-11-23T11:43:05.887Z,10.55
2022-11-23T11:45:38.653Z,9.63
2022-11-23T11:48:20.344Z,9.93
2022-11-23T11:51:06.216Z,7.25
2022-11-23T11:53:55.257Z,8.50
2022-11-23T11:56:34.860Z,7.32
2022-11-23T11:59:14.086Z,4.78
2022-11-23T12:02:14.518Z,5.03
2022-11-23T12:05:02.344Z,10.18
2022-11-23T12:07:35.757Z,5.93
2022-11-23T12:10:36.664Z,5.05
2022-11-23T12:13:04.047Z,6.55
2022-11-23T12:15:50.528Z,5.47
2022-11-23T12:18:26.482Z,5.80
2022-11-23T12:21:31.178Z,6.63
2022-11-23T12:24:25.316Z,7.18
2022-11-23T12:27:25.704Z,6.03
2022-11-23T12:30:22.345Z,7.90
2022-11-23T12:32:49.323Z,6.00
2022-11-23T12:35:31.444Z,7.75
2022-11-23T12:38:17.044Z,8.00
2022-11-23T12:40:49.949Z,6.32
2022-11-23T12:43:36.760Z,7.45
2022-11-23T12:46:16.384Z,7.57
2022-11-23T12:49:14.081Z,5.28
2022-11-23T12:51:59.552Z,4.95
2022-11-23T12:54:44.800Z,5.53
2022-11-23T12:57:24.797Z,6.13
2022-11-23T13:00:04.887Z,7.05
2022-11-23T13:02:49.870Z,6.70
2022-11-23T13:05:32.526Z,8.10
2022-11-23T13:08:26.652Z,8.95
2022-11-23T13:11:26.784Z,8.68
2022-11-23T13:14:05.957Z,5.82
2022-11-23T13:17:00.802Z,7.88
2022-11-23T13:19:37.373Z,7.35
2022-11-23T13:22:10.637Z,9.05
2022-11-23T13:24:41.093Z,6.70
2022-11-23T13:27:14.184Z,7.18
2022-11-23T13:29:50.274Z,5.07
2022-11-23T13:32:39.262Z,7.03
2022-11-23T13:35:21.689Z,5.47
2022-11-23T13:37:57.841Z,9.32
2022-11-23T13:40:30.514Z,5.45
2022-11-23T13:43:04.111Z,4.72
2022-11-23T13:45:36.712Z,6.18
2022-11-23T13:48:05.886Z,7.20
2022-11-23T13:50:34.010Z,7.55
2022-11-23T13:53:02.916Z,7.07
2022-11-23T13:55:39.461Z,5.90
2022-11-23T13:58:39.857Z,5.55
2022-11-23T14:01:07.475Z,6.95
2022-11-23T14:03:44.211Z,7.85
2022-11-23T14:06:20.564Z,5.88
2022-11-23T14:08:51.825Z,6.45
2022-11-23T14:11:22.882Z,7.13
2022-11-23T14:14:03.335Z,4.75
2022-11-23T14:16:44.040Z,5.70
2022-11-23T14:19:32.285Z,6.78
2022-11-23T14:22:20.731Z,9.82
2022-11-23T14:24:56.763Z,6.55
2022-11-23T14:27:47.231Z,7.55
2022-11-23T14:30:24.141Z,6.72
2022-11-23T14:33:10.112Z,6.93
2022-11-23T14:39:12.057Z,7.32
2022-11-23T14:41:42.286Z,7.72
2022-11-23T14:44:13.474Z,8.18
2022-11-23T14:47:03.589Z,7.38
2022-11-23T14:49:31.028Z,7.28
2022-11-23T14:51:58.709Z,7.13
2022-11-23T14:54:26.217Z,8.07
2022-11-23T14:56:57.808Z,7.82
2022-11-23T14:59:30.885Z,6.82
2022-11-23T15:02:02.056Z,8.23
2022-11-23T15:04:36.931Z,8.80
2022-11-23T15:12:45.064Z,9.25
2022-11-23T15:15:19.637Z,11.70
2022-11-23T15:18:02.797Z,9.50
2022-11-23T15:20:35.586Z,10.07
2022-11-23T15:23:03.992Z,11.00
2022-11-23T15:25:32.057Z,10.40
2022-11-23T15:27:59.182Z,10.55
2022-11-23T15:30:28.965Z,9.57
2022-11-23T15:33:02.001Z,10.00
2022-11-23T15:35:34.773Z,16.42
2022-11-23T15:38:03.106Z,10.40
2022-11-23T15:40:36.908Z,10.75
2022-11-23T15:43:04.228Z,11.32
2022-11-23T15:45:46.678Z,10.18
2022-11-23T15:48:20.130Z,11.85
2022-11-23T15:51:09.730Z,9.82
2022-11-23T15:53:47.427Z,10.75
2022-11-23T15:56:36.708Z,14.02
2022-11-23T15:59:17.317Z,10.05
2022-11-23T16:01:44.904Z,10.30
2022-11-23T16:04:36.790Z,9.48
2022-11-23T16:07:24.341Z,9.55
2022-11-23T16:10:02.825Z,10.75
2022-11-23T16:12:33.669Z,16.35
2022-11-23T16:15:38.867Z,10.15
2022-11-23T16:18:13.028Z,9.38
2022-11-23T16:20:59.021Z,9.38
2022-11-23T16:23:45.904Z,11.35
2022-11-23T16:26:14.073Z,11.80
2022-11-23T16:28:50.407Z,10.52
2022-11-23T16:31:36.080Z,10.73
2022-11-23T16:34:03.733Z,11.30
2022-11-23T16:36:30.694Z,13.18
2022-11-23T16:39:01.049Z,9.40
2022-11-23T16:41:31.032Z,12.00
2022-11-23T16:43:58.076Z,14.30
2022-11-23T16:46:25.282Z,10.65
2022-11-23T16:48:54.350Z,11.65
2022-11-23T16:51:21.364Z,12.80
2022-11-23T16:56:36.940Z,12.25
2022-11-23T16:59:04.331Z,11.73
2022-11-23T17:01:32.664Z,12.30
2022-11-23T17:04:00.409Z,11.63
2022-11-23T17:06:27.495Z,13.73
2022-11-23T17:09:03.155Z,14.23
2022-11-23T17:11:35.103Z,13.82
2022-11-23T17:14:02.200Z,16.73
2022-11-23T17:16:30.882Z,14.20
2022-11-23T17:18:57.963Z,14.48
2022-11-23T17:21:24.947Z,15.65
2022-11-23T17:23:52.139Z,20.45
2022-11-23T17:26:38.580Z,14.43
2022-11-23T17:29:10.915Z,16.35
2022-11-23T17:31:38.062Z,16.67
2022-11-23T17:34:05.028Z,16.08
2022-11-23T17:36:32.312Z,16.83
2022-11-23T17:38:59.437Z,19.90
2022-11-23T17:41:26.438Z,16.95
2022-11-23T17:43:54.634Z,21.05
2022-11-23T17:46:26.518Z,18.08
2022-11-23T17:48:58.277Z,18.05
2022-11-23T17:51:25.948Z,16.88
2022-11-23T17:53:52.974Z,19.17
2022-11-23T17:56:22.443Z,17.77
2022-11-23T17:58:50.848Z,19.55
2022-11-23T18:01:19.671Z,23.08
2022-11-23T18:03:46.857Z,20.42
2022-11-23T18:06:24.464Z,16.98
2022-11-23T18:08:52.549Z,17.10
2022-11-23T18:11:20.761Z,20.20
2022-11-23T18:13:50.194Z,23.00
2022-11-23T18:16:18.766Z,25.48
2022-11-23T18:18:45.846Z,19.73
2022-11-23T18:21:14.502Z,19.88
2022-11-23T18:23:42.557Z,19.13
2022-11-23T18:26:21.234Z,19.02
2022-11-23T18:28:49.371Z,23.85
2022-11-23T18:31:16.966Z,22.42
2022-11-23T18:33:44.269Z,21.25
2022-11-23T18:36:12.919Z,21.55
2022-11-23T18:38:40.459Z,22.67
2022-11-23T18:41:07.773Z,20.42
2022-11-23T18:43:35.197Z,20.13
2022-11-23T18:46:06.073Z,19.33
2022-11-23T18:48:33.143Z,21.95
2022-11-23T18:51:01.325Z,20.60
2022-11-23T18:53:28.458Z,23.58
2022-11-23T18:56:00.259Z,22.55
2022-11-23T18:58:42.065Z,24.77
2022-11-23T19:01:14.180Z,24.13
2022-11-23T19:03:42.389Z,22.92
2022-11-23T19:06:13.510Z,26.83
2022-11-23T19:08:45.850Z,26.25
2022-11-23T19:11:19.749Z,24.13
2022-11-23T19:13:52.961Z,23.70
2022-11-23T19:16:28.937Z,31.27
2022-11-23T19:19:05.656Z,27.35
2022-11-23T19:21:34.745Z,34.90
2022-11-23T19:24:02.466Z,32.83
2022-11-23T19:26:30.660Z,40.15
2022-11-23T19:28:58.475Z,29.65
2022-11-23T19:31:28.072Z,34.53
2022-11-23T19:34:03.151Z,30.00
2022-11-23T19:36:30.985Z,34.20
2022-11-23T19:39:00.603Z,32.95
2022-11-23T19:41:30.669Z,32.28
2022-11-23T19:43:59.180Z,31.27
2022-11-23T19:46:26.640Z,33.05
2022-11-23T19:48:55.857Z,30.70
2022-11-23T19:51:23.610Z,26.55
2022-11-23T19:53:51.128Z,34.20
2022-11-23T19:56:23.975Z,30.77
2022-11-23T19:58:52.966Z,34.70
2022-11-23T20:01:22.141Z,29.77
2022-11-23T20:03:51.568Z,33.95
2022-11-23T20:06:28.098Z,30.85
2022-11-23T20:08:56.785Z,29.63
2022-11-23T20:11:24.302Z,28.63
2022-11-23T20:13:51.497Z,28.20
2022-11-23T20:16:20.021Z,36.15
2022-11-23T20:18:49.652Z,34.92
2022-11-23T20:21:18.617Z,34.28
2022-11-23T20:23:47.459Z,32.80
2022-11-23T20:26:16.210Z,31.02
2022-11-23T20:28:43.232Z,35.38
2022-11-23T20:31:20.577Z,37.03
2022-11-23T20:33:51.517Z,31.80
2022-11-23T20:36:26.391Z,40.92
2022-11-23T20:38:54.195Z,40.70
2022-11-23T20:41:29.748Z,40.92
2022-11-23T20:44:02.052Z,36.42
2022-11-23T20:47:01.122Z,37.03
2022-11-23T20:49:18.007Z,35.53
2022-11-23T20:51:45.003Z,38.45
2022-11-23T20:54:12.301Z,42.92
2022-11-23T20:56:39.523Z,39.97
2022-11-23T20:59:06.505Z,36.25
2022-11-23T21:01:34.662Z,36.15
2022-11-23T21:04:02.016Z,38.08
2022-11-23T21:06:30.696Z,39.10
2022-11-23T21:09:01.053Z,42.63
2022-11-23T21:11:47.882Z,42.42
2022-11-23T21:14:19.840Z,42.80
2022-11-23T21:16:55.574Z,38.40
2022-11-23T21:19:36.914Z,41.03
2022-11-23T21:22:10.049Z,38.40
2022-11-23T21:24:37.572Z,45.28
2022-11-23T21:27:05.819Z,42.97
2022-11-23T21:29:33.426Z,43.45
2022-11-23T21:32:03.586Z,46.20
2022-11-23T21:34:31.407Z,48.03
2022-11-23T21:36:58.671Z,40.95
2022-11-23T21:39:25.738Z,41.05
2022-11-23T21:41:53.988Z,37.63
2022-11-23T21:44:24.881Z,47.00
2022-11-23T21:46:52.168Z,38.33
2022-11-23T21:49:19.337Z,42.25
2022-11-23T21:51:46.448Z,42.67
2022-11-23T21:54:15.827Z,37.47
2022-11-23T21:56:44.798Z,34.70
2022-11-23T21:59:12.582Z,34.47
2022-11-23T22:01:40.575Z,40.30
2022-11-23T22:04:15.636Z,31.73
2022-11-23T22:06:45.167Z,37.80
2022-11-23T22:09:13.019Z,36.78
2022-11-23T22:11:43.081Z,36.45
2022-11-23T22:14:12.776Z,35.33
2022-11-23T22:16:42.265Z,31.50
2022-11-23T22:19:14.360Z,37.75
2022-11-23T22:21:42.941Z,35.67
2022-11-23T22:24:15.403Z,34.60
2022-11-23T22:26:43.236Z,43.83
2022-11-23T22:29:10.702Z,37.15
2022-11-23T22:31:38.277Z,33.22
2022-11-23T22:34:07.454Z,35.30
2022-11-23T22:36:34.648Z,38.60
2022-11-23T22:39:04.297Z,39.70
2022-11-23T22:41:37.264Z,36.08
2022-11-23T22:44:06.574Z,36.25
2022-11-23T22:46:33.693Z,42.67
2022-11-23T22:49:01.901Z,37.53
2022-11-23T22:51:29.741Z,37.63
2022-11-23T22:53:58.517Z,39.95
2022-11-23T22:56:27.294Z,33.80
2022-11-23T22:58:54.411Z,37.47
2022-11-23T23:01:23.964Z,34.60
2022-11-23T23:03:56.189Z,33.20
2022-11-23T23:06:28.634Z,31.52
2022-11-23T23:09:00.244Z,34.97
2022-11-23T23:11:29.439Z,31.00
2022-11-23T23:13:57.083Z,31.30
2022-11-23T23:16:24.852Z,29.75
2022-11-23T23:18:54.049Z,28.58
2022-11-23T23:21:22.147Z,32.97
2022-11-23T23:23:54.318Z,30.45
2022-11-23T23:26:24.363Z,31.33
2022-11-23T23:28:56.283Z,34.03
2022-11-23T23:31:23.854Z,31.23
2022-11-23T23:33:51.095Z,31.85
2022-11-23T23:36:21.174Z,28.25
2022-11-23T23:38:48.710Z,33.88
2022-11-23T23:41:15.717Z,28.52
2022-11-23T23:43:43.311Z,29.30
2022-11-23T23:46:12.577Z,31.13
2022-11-23T23:48:41.002Z,30.42
2022-11-23T23:51:16.507Z,26.98
2022-11-23T23:53:44.780Z,27.17
2022-11-23T23:56:18.790Z,34.05
2022-11-23T23:58:46.158Z,31.42
